Trotters, North Dakota
Current Conditions -  °F | °C
As of 11:55 PM on Saturday 25 Oct 2014 (Local Time) from KGDV Reporting Station
Clear Clear  
Wind Chill: 55°   Ceiling: Unl
Heat Index: 55°   Visibility: 10mi
Dew Point: 34°   Wind: 12mph
Humidity: 44%   Direction: 150°SSE
Pressure: 29.67"   Gusts: NA
Location:  47.0809°N, 103.878°W
Report Text: KGDV 260555Z AUTO 15010KT 10SM CLR 13/01 A2967 RMK AO1 10160 20090 57034
Loading
Personal Weather Stations






























Interactive Weather Map
Tropical Storm Tracking
New forecast layout! Learn more

10-Day Weather Forecast

Advertisements
Track Severe Weather on mobile